createdAt,value
2022-12-06T00:01:19.537Z,56.00
2022-12-06T00:03:47.850Z,56.05
2022-12-06T00:06:15.351Z,56.20
2022-12-06T00:08:42.461Z,55.99
2022-12-06T00:11:11.559Z,56.00
2022-12-06T00:13:38.802Z,55.93
2022-12-06T00:16:08.061Z,55.84
2022-12-06T00:18:36.764Z,55.49
2022-12-06T00:21:11.057Z,55.77
2022-12-06T00:23:39.720Z,55.98
2022-12-06T00:26:07.528Z,55.88
2022-12-06T00:28:35.009Z,55.82
2022-12-06T00:31:03.409Z,55.72
2022-12-06T00:33:30.190Z,55.59
2022-12-06T00:36:01.514Z,55.58
2022-12-06T00:38:29.340Z,55.63
2022-12-06T00:41:04.881Z,55.67
2022-12-06T00:43:32.757Z,55.68
2022-12-06T00:45:59.806Z,55.67
2022-12-06T00:48:27.432Z,55.72
2022-12-06T00:50:54.256Z,55.56
2022-12-06T00:53:22.851Z,55.17
2022-12-06T00:55:49.697Z,55.69
2022-12-06T00:58:16.568Z,55.39
2022-12-06T01:00:43.222Z,55.33
2022-12-06T01:03:10.547Z,55.62
2022-12-06T01:05:45.679Z,55.43
2022-12-06T01:08:12.540Z,55.62
2022-12-06T01:10:39.760Z,55.61
2022-12-06T01:13:07.347Z,55.56
2022-12-06T01:15:36.078Z,55.51
2022-12-06T01:18:03.338Z,55.52
2022-12-06T01:20:29.800Z,55.12
2022-12-06T01:22:56.339Z,55.25
2022-12-06T01:25:25.872Z,55.15
2022-12-06T01:27:53.073Z,55.20
2022-12-06T01:30:19.516Z,55.95
2022-12-06T01:32:46.033Z,55.87
2022-12-06T01:35:12.540Z,55.51
2022-12-06T01:37:39.096Z,55.77
2022-12-06T01:40:06.300Z,55.53
2022-12-06T01:42:32.808Z,55.56
2022-12-06T01:44:59.515Z,55.48
2022-12-06T01:47:28.803Z,55.14
2022-12-06T01:50:04.863Z,55.19
2022-12-06T01:52:37.958Z,55.03
2022-12-06T01:55:07.119Z,55.00
2022-12-06T01:57:34.059Z,55.24
2022-12-06T02:00:01.600Z,55.13
2022-12-06T02:02:37.247Z,55.00
2022-12-06T02:05:04.224Z,54.70
2022-12-06T02:07:31.567Z,54.64
2022-12-06T02:09:58.712Z,54.81
2022-12-06T02:12:25.451Z,54.83
2022-12-06T02:14:54.217Z,55.16
2022-12-06T02:17:33.653Z,55.08
2022-12-06T02:20:33.187Z,55.02
2022-12-06T02:23:29.919Z,55.05
2022-12-06T02:25:59.610Z,54.83
2022-12-06T02:29:11.210Z,54.94
2022-12-06T02:31:50.016Z,54.99
2022-12-06T02:34:24.300Z,55.10
2022-12-06T02:37:03.994Z,54.88
2022-12-06T02:39:36.132Z,54.73
2022-12-06T02:42:06.928Z,55.18
2022-12-06T02:44:47.123Z,54.91
2022-12-06T02:47:14.553Z,54.77
2022-12-06T02:49:46.377Z,54.98
2022-12-06T02:52:13.689Z,54.96
2022-12-06T02:54:41.655Z,54.71
2022-12-06T02:57:08.156Z,54.97
2022-12-06T02:59:34.667Z,54.49
2022-12-06T03:02:03.504Z,55.08
2022-12-06T03:04:46.518Z,54.75
2022-12-06T03:07:31.502Z,54.77
2022-12-06T03:10:15.950Z,54.98
2022-12-06T03:13:01.119Z,54.98
2022-12-06T03:15:59.687Z,54.84
2022-12-06T03:18:44.733Z,54.91
2022-12-06T03:21:20.788Z,54.85
2022-12-06T03:23:49.437Z,54.73
2022-12-06T03:26:19.648Z,54.74
2022-12-06T03:28:47.146Z,54.63
2022-12-06T03:31:14.576Z,54.59
2022-12-06T03:33:47.328Z,54.66
2022-12-06T03:36:15.273Z,54.68
2022-12-06T03:38:48.536Z,54.49
2022-12-06T03:41:16.729Z,54.63
2022-12-06T03:43:43.228Z,54.60
2022-12-06T03:46:16.693Z,54.57
2022-12-06T03:48:54.013Z,54.67
2022-12-06T03:51:29.413Z,54.67
2022-12-06T03:54:01.916Z,54.47
2022-12-06T03:56:29.193Z,54.79
2022-12-06T03:58:55.779Z,54.68
2022-12-06T04:01:22.323Z,54.36
2022-12-06T04:03:49.191Z,54.50
2022-12-06T04:06:15.926Z,54.79
2022-12-06T04:08:42.447Z,54.44
2022-12-06T04:11:09.042Z,54.42
2022-12-06T04:13:35.734Z,55.08
2022-12-06T04:16:02.423Z,54.88
2022-12-06T04:18:29.048Z,54.39
2022-12-06T04:21:17.722Z,54.37
2022-12-06T04:23:46.766Z,54.69
2022-12-06T04:26:15.539Z,54.48
2022-12-06T04:29:01.082Z,54.58
2022-12-06T04:31:47.166Z,54.58
2022-12-06T04:34:33.724Z,54.53
2022-12-06T04:37:19.096Z,54.42
2022-12-06T04:39:45.766Z,54.52
2022-12-06T04:42:33.433Z,54.45
2022-12-06T04:44:59.870Z,54.46
2022-12-06T04:47:26.592Z,54.40
2022-12-06T04:49:53.836Z,54.33
2022-12-06T04:52:20.420Z,54.19
2022-12-06T04:54:47.195Z,54.32
2022-12-06T04:57:15.848Z,54.50
2022-12-06T04:59:43.583Z,54.16
2022-12-06T05:02:13.867Z,54.37
2022-12-06T05:04:40.640Z,54.24
2022-12-06T05:07:07.471Z,54.41
2022-12-06T05:09:34.020Z,54.34
2022-12-06T05:12:00.494Z,54.17
2022-12-06T05:14:27.077Z,54.43
2022-12-06T05:16:53.683Z,54.28
2022-12-06T05:19:20.445Z,54.59
2022-12-06T05:21:47.106Z,54.53
2022-12-06T05:24:14.291Z,54.57
2022-12-06T05:26:41.385Z,54.73
2022-12-06T05:29:08.204Z,54.71
2022-12-06T05:31:34.776Z,54.47
2022-12-06T05:34:01.360Z,54.63
2022-12-06T05:36:28.305Z,54.83
2022-12-06T05:38:55.795Z,54.66
2022-12-06T05:41:24.966Z,54.47
2022-12-06T05:43:51.704Z,54.83
2022-12-06T05:46:18.578Z,54.92
2022-12-06T05:48:45.146Z,54.66
2022-12-06T05:51:12.010Z,54.74
2022-12-06T05:53:38.858Z,54.85
2022-12-06T05:56:07.252Z,54.80
2022-12-06T05:58:33.630Z,54.82
2022-12-06T06:01:00.168Z,54.78
2022-12-06T06:03:26.787Z,54.79
2022-12-06T06:05:57.286Z,54.74
2022-12-06T06:08:24.016Z,54.71
2022-12-06T06:10:50.626Z,54.76
2022-12-06T06:13:17.204Z,54.78
2022-12-06T06:15:43.766Z,54.79
2022-12-06T06:18:10.268Z,54.51
2022-12-06T06:20:36.795Z,54.47
2022-12-06T06:23:03.300Z,54.60
2022-12-06T06:25:29.803Z,54.52
2022-12-06T06:27:56.330Z,54.47
2022-12-06T06:30:22.859Z,54.40
2022-12-06T06:32:49.391Z,54.60
2022-12-06T06:35:15.993Z,54.55
2022-12-06T06:37:42.473Z,54.56
2022-12-06T06:40:09.232Z,54.63
2022-12-06T06:42:35.756Z,54.60
2022-12-06T06:45:04.030Z,54.68
2022-12-06T06:47:30.811Z,54.44
2022-12-06T06:49:57.462Z,54.72
2022-12-06T06:52:24.131Z,54.43
2022-12-06T06:54:50.633Z,54.38
2022-12-06T06:57:18.280Z,54.42
2022-12-06T06:59:45.545Z,54.51
2022-12-06T07:02:13.656Z,54.31
2022-12-06T07:04:40.405Z,54.26
2022-12-06T07:07:06.904Z,54.41
2022-12-06T07:24:00.946Z,54.03
2022-12-06T07:26:28.959Z,54.11
2022-12-06T07:28:57.740Z,53.97
2022-12-06T07:31:26.293Z,53.88
2022-12-06T07:33:58.401Z,53.92
2022-12-06T07:36:25.664Z,54.21
2022-12-06T07:38:53.875Z,53.91
2022-12-06T07:41:40.329Z,54.01
2022-12-06T07:44:33.904Z,53.91
2022-12-06T07:47:00.618Z,53.98
2022-12-06T07:49:27.354Z,53.85
2022-12-06T07:51:54.956Z,53.63
2022-12-06T07:54:22.241Z,53.58
2022-12-06T07:56:48.713Z,53.38
2022-12-06T07:59:15.272Z,53.49
2022-12-06T08:01:42.661Z,53.53
2022-12-06T08:04:09.450Z,53.44
2022-12-06T08:06:36.218Z,53.21
2022-12-06T08:09:02.973Z,52.22
2022-12-06T08:11:29.503Z,52.11
2022-12-06T08:13:56.137Z,52.37
2022-12-06T08:16:22.762Z,52.21
2022-12-06T08:18:49.692Z,52.41
2022-12-06T08:21:16.572Z,52.42
2022-12-06T08:23:43.083Z,52.62
2022-12-06T08:26:13.120Z,52.38
2022-12-06T08:28:40.323Z,52.20
2022-12-06T08:31:13.592Z,52.33
2022-12-06T08:33:40.464Z,52.46
2022-12-06T08:36:08.928Z,52.29
2022-12-06T08:38:37.220Z,52.27
2022-12-06T08:41:04.027Z,52.52
2022-12-06T08:43:31.276Z,52.42
2022-12-06T08:45:58.253Z,52.45
2022-12-06T08:48:24.764Z,52.64
2022-12-06T08:50:51.336Z,52.67
2022-12-06T08:53:17.857Z,52.84
2022-12-06T08:55:58.716Z,52.90
2022-12-06T08:58:28.669Z,52.96
2022-12-06T09:00:55.182Z,52.82
2022-12-06T09:03:21.701Z,53.04
2022-12-06T09:05:48.266Z,53.02
2022-12-06T09:08:14.856Z,52.97
2022-12-06T09:10:43.099Z,53.25
2022-12-06T09:13:09.577Z,53.20
2022-12-06T09:15:38.019Z,53.00
2022-12-06T09:18:04.600Z,53.19
2022-12-06T09:20:31.060Z,53.40
2022-12-06T09:22:57.828Z,53.36
2022-12-06T09:25:24.369Z,53.34
2022-12-06T09:27:50.916Z,53.84
2022-12-06T09:30:17.508Z,53.84
2022-12-06T09:32:44.047Z,53.86
2022-12-06T09:35:15.057Z,53.75
2022-12-06T09:37:42.333Z,53.83
2022-12-06T09:40:14.244Z,53.88
2022-12-06T09:43:10.160Z,54.37
2022-12-06T09:45:41.434Z,54.49
2022-12-06T09:48:48.917Z,54.30
2022-12-06T09:51:20.861Z,54.26
2022-12-06T09:53:59.355Z,54.35
2022-12-06T09:56:51.684Z,54.50
2022-12-06T09:59:25.644Z,54.36
2022-12-06T10:02:24.941Z,54.32
2022-12-06T10:05:19.394Z,54.32
2022-12-06T10:08:00.536Z,54.12
2022-12-06T10:10:57.518Z,54.35
2022-12-06T10:13:32.955Z,54.46
2022-12-06T10:16:19.771Z,54.13
2022-12-06T10:18:49.000Z,54.38
2022-12-06T10:21:17.850Z,54.35
2022-12-06T10:24:07.003Z,54.25
2022-12-06T10:26:49.140Z,54.31
2022-12-06T10:29:29.057Z,54.87
2022-12-06T10:31:56.952Z,54.37
2022-12-06T10:34:49.687Z,54.58
2022-12-06T10:37:52.496Z,54.84
2022-12-06T10:40:34.633Z,54.86
2022-12-06T10:43:23.693Z,54.95
2022-12-06T10:46:38.358Z,54.73
2022-12-06T10:49:17.109Z,55.07
2022-12-06T10:51:47.050Z,54.59
2022-12-06T10:55:04.346Z,54.87
2022-12-06T10:57:39.444Z,54.77
2022-12-06T11:00:18.311Z,54.75
2022-12-06T11:02:51.010Z,54.78
2022-12-06T11:05:32.028Z,54.85
2022-12-06T11:08:06.424Z,54.87
2022-12-06T11:10:34.419Z,54.74
2022-12-06T11:13:13.944Z,54.78
2022-12-06T11:15:47.106Z,54.71
2022-12-06T11:18:16.344Z,54.74
2022-12-06T11:21:03.050Z,54.80
2022-12-06T11:23:41.905Z,54.68
2022-12-06T11:26:20.911Z,55.27
2022-12-06T11:29:05.789Z,55.36
2022-12-06T11:31:43.895Z,55.50
2022-12-06T11:34:16.494Z,55.84
2022-12-06T11:36:43.729Z,56.59
2022-12-06T11:39:12.960Z,56.52
2022-12-06T11:41:39.525Z,56.18
2022-12-06T11:44:06.015Z,56.39
2022-12-06T11:46:32.661Z,56.79
2022-12-06T11:49:05.537Z,57.05
2022-12-06T11:51:32.130Z,57.62
2022-12-06T11:54:06.247Z,57.56
2022-12-06T11:56:35.465Z,58.09
2022-12-06T11:59:28.547Z,58.33
2022-12-06T12:02:03.489Z,58.36
2022-12-06T12:04:41.488Z,58.46
2022-12-06T12:07:18.744Z,58.60
2022-12-06T12:09:52.960Z,58.27
2022-12-06T12:12:46.254Z,58.25
2022-12-06T12:15:17.568Z,58.09
2022-12-06T12:17:50.428Z,58.08
2022-12-06T12:20:26.916Z,58.05
2022-12-06T12:23:02.478Z,57.70
2022-12-06T12:25:34.017Z,57.85
2022-12-06T12:28:01.773Z,57.90
2022-12-06T12:30:28.291Z,58.01
2022-12-06T12:33:07.006Z,57.79
2022-12-06T12:35:38.992Z,57.57
2022-12-06T12:38:11.635Z,57.46
2022-12-06T12:40:46.668Z,57.34
2022-12-06T12:43:13.216Z,56.67
2022-12-06T12:45:41.265Z,55.44
2022-12-06T12:48:25.377Z,55.06
2022-12-06T12:50:59.461Z,55.14
2022-12-06T12:53:31.101Z,54.83
2022-12-06T12:56:13.827Z,54.96
2022-12-06T12:58:41.395Z,55.04
2022-12-06T13:01:18.062Z,55.11
2022-12-06T13:03:52.867Z,55.18
2022-12-06T13:06:46.870Z,55.13
2022-12-06T13:09:33.765Z,55.43
2022-12-06T13:12:07.073Z,55.15
2022-12-06T13:14:34.868Z,55.15
2022-12-06T13:17:06.933Z,55.48
2022-12-06T13:19:38.946Z,55.34
2022-12-06T13:22:06.592Z,55.24
2022-12-06T13:24:33.895Z,55.41
2022-12-06T13:27:07.498Z,55.21
2022-12-06T13:29:35.559Z,55.43
2022-12-06T13:32:15.114Z,55.08
2022-12-06T13:34:52.435Z,55.32
2022-12-06T13:37:30.904Z,55.33
2022-12-06T13:39:57.947Z,55.29
2022-12-06T13:42:36.545Z,55.50
2022-12-06T13:45:05.368Z,55.34
2022-12-06T13:47:35.820Z,55.41
2022-12-06T13:50:17.417Z,55.40
2022-12-06T13:52:43.968Z,55.37
2022-12-06T13:55:25.882Z,55.25
2022-12-06T13:57:55.566Z,55.50
2022-12-06T14:00:28.339Z,55.29
2022-12-06T14:02:55.974Z,55.54
2022-12-06T14:06:06.088Z,55.23
2022-12-06T14:08:44.517Z,55.17
2022-12-06T14:11:24.586Z,55.36
2022-12-06T14:14:00.083Z,55.38
2022-12-06T14:16:54.134Z,55.42
2022-12-06T14:19:20.657Z,55.46
2022-12-06T14:21:59.536Z,55.37
2022-12-06T14:24:37.243Z,55.15
2022-12-06T14:27:18.052Z,55.43
2022-12-06T14:30:24.784Z,55.15
2022-12-06T14:32:58.682Z,55.50
2022-12-06T14:35:35.615Z,55.34
2022-12-06T14:38:29.471Z,55.26
2022-12-06T14:41:14.964Z,55.42
2022-12-06T14:43:45.470Z,55.50
2022-12-06T14:46:13.793Z,55.48
2022-12-06T14:48:59.132Z,55.14
2022-12-06T14:51:29.106Z,55.39
2022-12-06T14:53:55.649Z,55.49
2022-12-06T14:56:35.536Z,55.52
2022-12-06T14:59:09.624Z,55.22
2022-12-06T15:01:46.652Z,55.07
2022-12-06T15:04:24.632Z,55.20
2022-12-06T15:06:55.820Z,55.26
2022-12-06T15:09:22.722Z,54.70
2022-12-06T15:12:07.795Z,53.94
2022-12-06T15:14:40.419Z,54.05
2022-12-06T15:17:09.951Z,54.33
2022-12-06T15:19:38.094Z,54.55
2022-12-06T15:22:24.301Z,54.58
2022-12-06T15:24:54.629Z,55.04
2022-12-06T15:27:23.168Z,55.09
2022-12-06T15:29:49.824Z,55.19
2022-12-06T15:32:17.684Z,55.21
2022-12-06T15:34:45.066Z,55.15
2022-12-06T15:37:38.252Z,55.47
2022-12-06T15:40:01.961Z,55.43
2022-12-06T15:42:28.825Z,55.49
2022-12-06T15:44:55.300Z,55.37
2022-12-06T15:47:21.839Z,55.52
2022-12-06T15:49:51.270Z,55.86
2022-12-06T15:52:24.491Z,55.48
2022-12-06T15:54:51.484Z,56.16
2022-12-06T15:57:17.971Z,56.28
2022-12-06T15:59:44.680Z,55.81
2022-12-06T16:02:16.270Z,55.67
2022-12-06T16:04:43.948Z,55.95
2022-12-06T16:07:10.836Z,55.95
2022-12-06T16:09:37.668Z,55.82
2022-12-06T16:12:04.471Z,55.76
2022-12-06T16:14:31.000Z,56.08
2022-12-06T16:16:57.571Z,56.03
2022-12-06T16:19:24.103Z,56.10
2022-12-06T16:21:53.125Z,55.78
2022-12-06T16:24:21.024Z,56.12
2022-12-06T16:26:47.660Z,55.96
2022-12-06T16:29:20.970Z,56.01
2022-12-06T16:31:47.823Z,55.73
2022-12-06T16:34:14.896Z,55.82
2022-12-06T16:37:00.529Z,55.92
2022-12-06T16:39:28.498Z,55.86
2022-12-06T16:41:54.988Z,55.80
2022-12-06T16:44:22.184Z,55.70
2022-12-06T16:46:48.885Z,55.84
2022-12-06T16:49:47.911Z,55.81
2022-12-06T16:52:16.137Z,56.00
2022-12-06T16:54:43.123Z,56.35
2022-12-06T16:57:11.719Z,56.10
2022-12-06T16:59:38.216Z,55.95
2022-12-06T17:02:19.178Z,55.82
2022-12-06T17:04:45.732Z,55.91
2022-12-06T17:07:12.223Z,55.98
2022-12-06T17:09:38.671Z,56.13
2022-12-06T17:12:12.596Z,55.67
2022-12-06T17:14:39.578Z,55.85
2022-12-06T17:17:06.145Z,55.61
2022-12-06T17:19:33.198Z,55.57
2022-12-06T17:22:06.073Z,55.57
2022-12-06T17:24:33.130Z,55.75
2022-12-06T17:26:59.780Z,55.65
2022-12-06T17:29:26.526Z,55.47
2022-12-06T17:31:53.302Z,55.82
2022-12-06T17:34:21.870Z,55.44
2022-12-06T17:36:49.210Z,55.51
2022-12-06T17:39:18.404Z,55.61
2022-12-06T17:42:04.149Z,55.88
2022-12-06T17:44:30.715Z,55.86
2022-12-06T17:46:57.292Z,55.75
2022-12-06T17:49:25.491Z,55.65
2022-12-06T17:51:52.307Z,55.56
2022-12-06T17:54:19.454Z,56.13
2022-12-06T17:56:50.611Z,55.44
2022-12-06T17:59:19.367Z,55.87
2022-12-06T18:04:32.719Z,55.61
2022-12-06T18:06:59.284Z,55.88
2022-12-06T18:09:25.924Z,55.74
2022-12-06T18:11:52.542Z,55.63
2022-12-06T18:14:19.112Z,55.83
2022-12-06T18:16:47.944Z,55.59
2022-12-06T18:19:17.027Z,56.00
2022-12-06T18:21:44.006Z,56.00
2022-12-06T18:24:21.547Z,55.89
2022-12-06T18:26:50.098Z,56.38
2022-12-06T18:29:19.388Z,56.15
2022-12-06T18:31:46.130Z,55.91
2022-12-06T18:34:12.948Z,56.16
2022-12-06T18:36:40.482Z,56.11
2022-12-06T18:39:14.520Z,55.99
2022-12-06T18:41:43.140Z,55.69
2022-12-06T18:44:10.582Z,55.81
2022-12-06T18:46:38.914Z,55.80
2022-12-06T18:49:06.663Z,55.92
2022-12-06T18:51:35.033Z,55.87
2022-12-06T18:54:04.266Z,55.98
2022-12-06T18:56:32.081Z,56.07
2022-12-06T18:59:02.500Z,55.58
2022-12-06T19:01:31.895Z,55.17
2022-12-06T19:04:00.751Z,50.02
2022-12-06T19:06:30.571Z,51.34
2022-12-06T19:09:00.333Z,53.15
2022-12-06T19:11:26.864Z,51.76
2022-12-06T19:13:55.493Z,52.26
2022-12-06T19:16:36.375Z,52.07
2022-12-06T19:19:04.703Z,51.80
2022-12-06T19:21:32.914Z,52.36
2022-12-06T19:23:59.764Z,51.79
2022-12-06T19:26:27.328Z,51.06
2022-12-06T19:28:54.221Z,51.18
2022-12-06T19:31:23.173Z,50.99
2022-12-06T19:33:50.820Z,50.77
2022-12-06T19:36:28.813Z,50.95
2022-12-06T19:39:08.696Z,50.39
2022-12-06T19:41:55.211Z,50.30
2022-12-06T19:44:21.835Z,50.24
2022-12-06T19:46:48.456Z,50.62
2022-12-06T19:49:16.368Z,50.57
2022-12-06T19:51:44.379Z,50.36
2022-12-06T19:54:14.559Z,50.35
2022-12-06T19:56:41.215Z,50.53
2022-12-06T19:59:11.760Z,50.53
2022-12-06T20:01:43.420Z,50.56
2022-12-06T20:04:15.753Z,50.34
2022-12-06T20:06:42.260Z,50.17
2022-12-06T20:09:08.777Z,50.31
2022-12-06T20:11:55.621Z,50.33
2022-12-06T20:14:22.928Z,50.21
2022-12-06T20:16:50.149Z,50.29
2022-12-06T20:19:17.582Z,49.97
2022-12-06T20:21:44.938Z,49.96
2022-12-06T20:24:13.188Z,50.12
2022-12-06T20:26:39.845Z,49.94
2022-12-06T20:29:06.490Z,49.88
2022-12-06T20:31:33.364Z,50.10
2022-12-06T20:34:02.156Z,49.79
2022-12-06T20:36:31.346Z,49.83
2022-12-06T20:38:57.948Z,49.87
2022-12-06T20:41:25.982Z,49.73
2022-12-06T20:43:53.036Z,50.02
2022-12-06T20:46:25.426Z,49.86
2022-12-06T20:48:53.151Z,49.05
2022-12-06T20:51:22.814Z,49.44
2022-12-06T20:53:49.743Z,49.44
2022-12-06T20:56:19.267Z,49.21
2022-12-06T20:58:47.970Z,49.41
2022-12-06T21:01:19.034Z,49.51
2022-12-06T21:03:49.745Z,49.83
2022-12-06T21:06:17.576Z,49.10
2022-12-06T21:08:44.453Z,49.62
2022-12-06T21:11:26.481Z,49.43
2022-12-06T21:13:55.025Z,49.73
2022-12-06T21:16:27.607Z,49.93
2022-12-06T21:18:59.053Z,50.46
2022-12-06T21:21:28.585Z,50.70
2022-12-06T21:23:55.356Z,51.04
2022-12-06T21:26:21.979Z,51.19
2022-12-06T21:28:48.652Z,51.45
2022-12-06T21:31:15.312Z,51.11
2022-12-06T21:33:42.030Z,51.82
2022-12-06T21:36:10.085Z,51.55
2022-12-06T21:38:36.684Z,51.67
2022-12-06T21:41:07.873Z,51.83
2022-12-06T21:43:35.698Z,52.10
2022-12-06T21:46:04.259Z,52.21
2022-12-06T21:48:30.937Z,52.41
2022-12-06T21:51:02.472Z,52.37
2022-12-06T21:53:29.378Z,52.52
2022-12-06T21:55:55.936Z,52.28
2022-12-06T21:58:22.443Z,52.76
2022-12-06T22:00:49.181Z,52.46
2022-12-06T22:03:22.511Z,52.62
2022-12-06T22:05:49.670Z,52.60
2022-12-06T22:08:16.292Z,52.60
2022-12-06T22:10:42.971Z,52.70
2022-12-06T22:13:09.788Z,52.74
2022-12-06T22:15:36.486Z,52.69
2022-12-06T22:18:03.136Z,52.87
2022-12-06T22:20:29.792Z,52.90
2022-12-06T22:22:56.352Z,53.00
2022-12-06T22:25:22.960Z,53.08
2022-12-06T22:27:51.828Z,52.95
2022-12-06T22:30:18.347Z,53.04
2022-12-06T22:32:44.820Z,53.13
2022-12-06T22:35:11.357Z,52.86
2022-12-06T22:37:37.927Z,53.01
2022-12-06T22:40:05.175Z,52.90
2022-12-06T22:42:32.389Z,53.03
2022-12-06T22:44:58.888Z,53.27
2022-12-06T22:47:25.362Z,53.27
2022-12-06T22:49:51.845Z,53.26
2022-12-06T22:52:18.327Z,53.21
2022-12-06T22:54:44.784Z,53.41
2022-12-06T22:57:11.312Z,53.38
2022-12-06T22:59:37.849Z,53.63
2022-12-06T23:02:04.437Z,53.45
2022-12-06T23:04:31.028Z,53.59
2022-12-06T23:06:57.597Z,53.58
2022-12-06T23:09:24.144Z,53.59
2022-12-06T23:11:50.722Z,54.13
2022-12-06T23:14:17.235Z,54.07
2022-12-06T23:16:45.037Z,53.91
2022-12-06T23:19:11.749Z,54.20
2022-12-06T23:21:40.700Z,53.99
2022-12-06T23:24:08.320Z,54.03
2022-12-06T23:26:46.688Z,53.98
2022-12-06T23:29:14.552Z,53.90
2022-12-06T23:31:43.535Z,54.21
2022-12-06T23:34:14.084Z,54.14
2022-12-06T23:36:41.277Z,54.39
2022-12-06T23:39:08.180Z,54.34
2022-12-06T23:41:35.482Z,54.28
2022-12-06T23:44:02.507Z,54.46
2022-12-06T23:46:31.277Z,54.21
2022-12-06T23:48:58.304Z,53.95
2022-12-06T23:51:27.501Z,54.09
2022-12-06T23:53:58.713Z,53.94
2022-12-06T23:56:31.757Z,54.42
2022-12-06T23:58:59.326Z,54.24
